KFOE

Topeka Regional Airport

Topeka, Kansas, USA
METAR KFOE 160153Z 00000KT 10SM CLR M01/M07 A3016 RMK AO2 SLP226 T10111072
Observed Flight Rules
Dec-16 @ 01:53 UTC (37 minutes ago) Visual Flight Rules
Visibility Clouds
10 miles
  • Clear skies
Temperatures Readings
Current -1°C / 30°F
Dewpoint -7°C / 19°F
Humidity 64%
Altimeter 30.16" Hg
Pressure 1022.6 hPa
Elevation 320
METAR KFOE 160153Z 00000KT 10SM CLR M01/M07 A3016 RMK AO2 SLP226 T10111072
Observed Flight Rules
Dec-16 @ 01:53 UTC
(37 minutes ago)
VFR
Clouds
  • Clear skies
Temperature Dewpoint
-1°C / 30°F -7°C / 19°F
Humidity Altimeter Pressure
64% 30.16" Hg 1022.6 hPa